Time;durP1;ratioP1;P1;durP2;ratioP2;P2;SDS_P1;SDS_P2;PMS_P1;PMS_P2;Temp;Humidity;BMP_temperature;BMP_pressure;BME280_temperature;BME280_humidity;BME280_pressure;Samples;Min_cycle;Max_cycle;Signal;HPM_P1;HPM_P2
2023/01/06 00:01:10;;;;;;;60.97;35.97;;;27.80;84.70;;;;;;5125532;28;20020;-57
2023/01/06 00:03:37;;;;;;;56.05;31.65;;;27.80;84.80;;;;;;5125910;28;20016;-56
2023/01/06 00:06:06;;;;;;;64.03;32.90;;;27.80;84.70;;;;;;5125293;28;20032;-53
2023/01/06 00:08:34;;;;;;;62.40;33.17;;;27.80;84.50;;;;;;5125795;28;20022;-57
2023/01/06 00:11:12;;;;;;;48.78;26.63;;;27.80;84.30;;;;;;5125443;28;20023;-55
2023/01/06 00:13:39;;;;;;;41.40;23.10;;;27.80;84.30;;;;;;5125472;28;20033;-58
2023/01/06 00:16:08;;;;;;;38.40;21.38;;;27.80;84.30;;;;;;5125299;28;20023;-54
2023/01/06 00:18:36;;;;;;;31.42;16.63;;;27.80;84.10;;;;;;5125062;28;20351;-56
2023/01/06 00:21:03;;;;;;;26.90;14.68;;;27.80;84.00;;;;;;5125084;28;20026;-55
2023/01/06 00:23:30;;;;;;;24.35;13.55;;;27.70;84.30;;;;;;5125349;28;20065;-53
2023/01/06 00:25:57;;;;;;;21.85;11.80;;;27.70;84.30;;;;;;5125087;28;20012;-55
2023/01/06 00:28:23;;;;;;;18.70;11.02;;;27.70;84.40;;;;;;5125146;28;20046;-53
2023/01/06 00:30:50;;;;;;;20.60;11.73;;;27.70;84.50;;;;;;5124922;28;20111;-58
2023/01/06 00:33:17;;;;;;;21.65;12.00;;;27.70;84.70;;;;;;5124197;28;20311;-57
2023/01/06 00:35:43;;;;;;;32.58;17.25;;;27.70;84.60;;;;;;5124866;28;20020;-57
2023/01/06 00:38:10;;;;;;;30.10;17.70;;;27.60;84.80;;;;;;5125106;28;20035;-53
2023/01/06 00:40:37;;;;;;;26.10;15.10;;;27.60;84.80;;;;;;5124846;28;20016;-55
2023/01/06 00:43:04;;;;;;;20.98;12.02;;;27.60;85.00;;;;;;5124907;28;20078;-55
2023/01/06 00:45:30;;;;;;;24.63;11.60;;;27.60;85.40;;;;;;5124654;28;20031;-56
2023/01/06 00:47:57;;;;;;;21.20;11.23;;;27.60;85.40;;;;;;5124926;28;20047;-54
2023/01/06 00:50:24;;;;;;;22.25;11.82;;;27.60;85.20;;;;;;5124560;28;20024;-55
2023/01/06 00:52:51;;;;;;;22.38;12.23;;;27.60;85.30;;;;;;5125067;28;20023;-54
2023/01/06 00:55:17;;;;;;;23.00;11.20;;;27.60;85.30;;;;;;5124708;28;20021;-54
2023/01/06 00:57:44;;;;;;;19.65;11.30;;;27.60;85.40;;;;;;5124637;28;20095;-55
2023/01/06 01:00:11;;;;;;;19.83;10.23;;;27.60;85.70;;;;;;5124637;28;20031;-56
2023/01/06 01:02:37;;;;;;;16.73;10.13;;;27.50;85.80;;;;;;5124471;28;20020;-56
2023/01/06 01:05:04;;;;;;;18.55;9.20;;;27.60;86.10;;;;;;5124420;28;20054;-58
2023/01/06 01:07:30;;;;;;;20.75;9.10;;;27.50;86.10;;;;;;5124318;28;20032;-55
2023/01/06 01:09:57;;;;;;;16.90;8.55;;;27.50;86.10;;;;;;5124551;28;20318;-56
2023/01/06 01:12:24;;;;;;;13.73;8.18;;;27.50;86.20;;;;;;5124296;28;20045;-58
2023/01/06 01:14:52;;;;;;;17.10;7.72;;;27.50;86.10;;;;;;5124449;28;20032;-55
2023/01/06 01:17:22;;;;;;;18.67;8.18;;;27.50;86.10;;;;;;5124341;28;20046;-54
2023/01/06 01:19:50;;;;;;;24.33;8.10;;;27.50;86.20;;;;;;5124160;28;20105;-54
2023/01/06 01:22:17;;;;;;;16.02;7.78;;;27.50;86.10;;;;;;5124244;28;20315;-56
2023/01/06 01:24:44;;;;;;;16.08;6.85;;;27.50;86.20;;;;;;5124637;28;20034;-54
2023/01/06 01:27:11;;;;;;;14.75;7.40;;;27.50;86.30;;;;;;5123969;28;20094;-56
2023/01/06 01:29:37;;;;;;;15.63;7.63;;;27.50;86.40;;;;;;5124299;28;20020;-55
2023/01/06 01:32:04;;;;;;;12.80;6.70;;;27.40;86.20;;;;;;5124113;28;20051;-55
2023/01/06 01:34:31;;;;;;;13.95;6.70;;;27.40;86.20;;;;;;5124043;28;20034;-63
2023/01/06 01:36:58;;;;;;;13.50;7.00;;;27.40;86.20;;;;;;5124163;28;20023;-59
2023/01/06 01:39:26;;;;;;;11.68;7.00;;;27.40;86.10;;;;;;5124521;28;20050;-56
2023/01/06 01:41:55;;;;;;;15.50;7.03;;;27.40;86.20;;;;;;5124092;28;20028;-58
2023/01/06 01:44:50;;;;;;;13.10;6.80;;;27.40;86.10;;;;;;5126865;28;20042;-57
2023/01/06 01:47:31;;;;;;;12.77;6.75;;;27.40;86.10;;;;;;5127986;28;20023;-55
2023/01/06 01:50:27;;;;;;;12.52;6.30;;;27.30;86.50;;;;;;5128197;28;20036;-55
2023/01/06 01:52:59;;;;;;;9.98;6.07;;;27.30;86.00;;;;;;5128204;28;20019;-58
2023/01/06 01:55:26;;;;;;;;;;;27.30;86.00;;;;;;5128499;28;20040;-58
2023/01/06 01:58:04;;;;;;;9.77;6.55;;;27.30;85.90;;;;;;5128027;28;19900;-56
2023/01/06 02:00:31;;;;;;;11.18;6.43;;;27.30;85.90;;;;;;5127955;28;20032;-57
2023/01/06 02:02:58;;;;;;;10.68;6.68;;;27.20;85.70;;;;;;5127667;28;20012;-58
2023/01/06 02:05:27;;;;;;;9.00;5.90;;;27.20;85.60;;;;;;5127953;28;20031;-57
2023/01/06 02:07:56;;;;;;;13.75;6.25;;;27.30;85.90;;;;;;5127727;28;20035;-57
2023/01/06 02:10:25;;;;;;;9.63;5.35;;;27.30;85.40;;;;;;5127647;28;20027;-56
2023/01/06 02:12:57;;;;;;;9.57;5.40;;;27.30;85.20;;;;;;5127793;28;20020;-57
2023/01/06 02:15:32;;;;;;;13.52;6.05;;;27.30;85.30;;;;;;5127743;28;20020;-55
2023/01/06 02:18:29;;;;;;;10.05;5.47;;;27.30;85.30;;;;;;5127505;28;20058;-60
2023/01/06 02:21:10;;;;;;;10.15;5.28;;;27.30;85.20;;;;;;5127408;28;20350;-57
2023/01/06 02:23:56;;;;;;;9.35;4.97;;;27.20;85.40;;;;;;5127809;28;20042;-56
2023/01/06 02:26:50;;;;;;;10.63;5.40;;;27.20;85.50;;;;;;5127303;28;20095;-58
2023/01/06 02:29:36;;;;;;;8.82;5.20;;;27.20;85.80;;;;;;5127625;28;20065;-53
2023/01/06 02:32:25;;;;;;;10.45;5.32;;;27.30;85.70;;;;;;5127344;28;20072;-54
2023/01/06 02:35:13;;;;;;;8.73;5.10;;;27.20;85.80;;;;;;5127314;28;20043;-58
2023/01/06 02:38:16;;;;;;;7.72;4.70;;;27.20;86.40;;;;;;5127062;28;20130;-55
2023/01/06 02:40:49;;;;;;;9.65;4.80;;;27.20;85.90;;;;;;5127173;28;20092;-57
2023/01/06 02:43:25;;;;;;;10.35;4.72;;;27.20;85.80;;;;;;5127300;28;20033;-56
2023/01/06 02:46:13;;;;;;;8.45;4.78;;;27.20;85.90;;;;;;5127104;28;20028;-55
2023/01/06 02:49:03;;;;;;;8.75;5.03;;;27.20;86.30;;;;;;5127518;28;20045;-55
2023/01/06 02:52:05;;;;;;;10.05;4.93;;;27.20;85.90;;;;;;5126774;28;20102;-57
2023/01/06 02:54:44;;;;;;;9.60;5.10;;;27.10;85.60;;;;;;5126830;28;20103;-57
2023/01/06 02:57:28;;;;;;;6.32;4.25;;;27.10;85.80;;;;;;5126312;28;20031;-56
2023/01/06 03:00:20;;;;;;;9.77;5.75;;;27.10;85.80;;;;;;5126807;28;20211;-57
2023/01/06 03:02:56;;;;;;;8.25;5.32;;;27.10;86.00;;;;;;5126876;28;20037;-57
2023/01/06 03:05:24;;;;;;;10.07;4.10;;;27.00;86.00;;;;;;5126648;28;20027;-54
2023/01/06 03:07:52;;;;;;;10.40;5.00;;;27.00;86.30;;;;;;5126722;28;20081;-55
2023/01/06 03:10:24;;;;;;;10.27;4.82;;;27.00;86.10;;;;;;5126542;28;20020;-55
2023/01/06 03:13:12;;;;;;;6.27;4.40;;;27.00;86.20;;;;;;5126673;28;20095;-55
2023/01/06 03:15:39;;;;;;;9.27;4.78;;;27.00;86.20;;;;;;5126452;28;20084;-54
2023/01/06 03:18:06;;;;;;;12.10;7.00;;;26.90;86.30;;;;;;5126164;28;20353;-55
2023/01/06 03:20:32;;;;;;;14.73;11.55;;;26.90;86.30;;;;;;5126418;28;20095;-57
2023/01/06 03:22:59;;;;;;;22.83;18.30;;;26.90;86.30;;;;;;5126369;28;20180;-54
2023/01/06 03:25:26;;;;;;;27.15;23.00;;;26.90;86.20;;;;;;5126343;28;20031;-55
2023/01/06 03:27:52;;;;;;;30.63;24.27;;;26.90;86.20;;;;;;5126375;28;20023;-61
2023/01/06 03:30:19;;;;;;;27.83;22.65;;;26.90;86.20;;;;;;5125900;28;20028;-57
2023/01/06 03:33:17;;;;;;;21.02;17.35;;;26.90;86.10;;;;;;5126384;28;20031;-55
2023/01/06 03:35:58;;;;;;;15.85;12.65;;;26.90;86.10;;;;;;5126040;28;20031;-58
2023/01/06 03:38:35;;;;;;;15.80;10.88;;;26.90;86.10;;;;;;5126370;28;20011;-55
2023/01/06 03:41:21;;;;;;;12.73;8.40;;;26.80;85.90;;;;;;5125936;28;20027;-54
2023/01/06 03:44:10;;;;;;;12.70;7.35;;;26.80;85.60;;;;;;5126373;28;20284;-55
2023/01/06 03:46:48;;;;;;;9.95;6.50;;;26.80;85.30;;;;;;5125839;28;20055;-55
2023/01/06 03:49:38;;;;;;;9.80;6.30;;;26.70;84.80;;;;;;5125689;28;20027;-55
2023/01/06 03:52:28;;;;;;;9.60;5.75;;;26.70;83.90;;;;;;5125863;28;20076;-56
2023/01/06 03:55:06;;;;;;;9.18;5.30;;;26.70;83.60;;;;;;5125783;28;20023;-59
2023/01/06 03:57:42;;;;;;;6.80;4.90;;;26.70;82.30;;;;;;5125837;28;20035;-56
2023/01/06 04:00:23;;;;;;;5.95;4.35;;;26.80;82.50;;;;;;5125718;28;20032;-61
2023/01/06 04:02:50;;;;;;;7.80;4.65;;;26.70;82.00;;;;;;5125711;28;20028;-54
2023/01/06 04:05:19;;;;;;;5.80;4.30;;;26.70;80.70;;;;;;5125776;28;20076;-54
2023/01/06 04:07:47;;;;;;;9.25;4.45;;;26.80;80.70;;;;;;5124566;28;20035;-57
2023/01/06 04:10:15;;;;;;;6.22;3.88;;;26.70;80.50;;;;;;5125411;28;20032;-56
2023/01/06 04:12:42;;;;;;;8.88;3.83;;;26.70;80.50;;;;;;5125529;28;20026;-53
2023/01/06 04:15:14;;;;;;;5.82;3.53;;;26.70;80.30;;;;;;5125424;28;20039;-54
2023/01/06 04:17:42;;;;;;;5.15;3.63;;;26.70;80.40;;;;;;5125194;28;20028;-51
2023/01/06 04:20:12;;;;;;;5.55;3.90;;;26.70;80.10;;;;;;5125187;28;20039;-54
2023/01/06 04:22:38;;;;;;;6.30;3.58;;;26.60;79.80;;;;;;5125331;28;20027;-54
2023/01/06 04:25:06;;;;;;;5.32;3.35;;;26.70;79.70;;;;;;5125067;28;20035;-54
2023/01/06 04:27:33;;;;;;;7.68;3.33;;;26.60;79.70;;;;;;5125200;28;20039;-57
2023/01/06 04:29:59;;;;;;;6.07;3.63;;;26.60;79.50;;;;;;5125210;28;20032;-56
2023/01/06 04:32:26;;;;;;;6.20;3.20;;;26.60;79.40;;;;;;5124861;28;20090;-54
2023/01/06 04:34:53;;;;;;;5.50;3.47;;;26.60;79.50;;;;;;5125144;28;20064;-58
2023/01/06 04:37:20;;;;;;;8.95;3.95;;;26.60;79.70;;;;;;5124985;28;20030;-53
2023/01/06 04:39:47;;;;;;;5.75;3.47;;;26.60;79.50;;;;;;5124756;28;20019;-54
2023/01/06 04:42:13;;;;;;;7.15;3.85;;;26.60;79.50;;;;;;5124849;28;20026;-54
2023/01/06 04:44:41;;;;;;;9.63;4.47;;;26.60;79.50;;;;;;5124917;28;20051;-54
2023/01/06 04:47:09;;;;;;;7.40;3.95;;;26.60;79.70;;;;;;5124547;28;20314;-55
2023/01/06 04:49:35;;;;;;;7.55;4.57;;;26.60;79.60;;;;;;5124827;28;20315;-54
2023/01/06 04:52:02;;;;;;;4.68;3.30;;;26.60;79.70;;;;;;5124556;28;20020;-55
2023/01/06 04:54:29;;;;;;;7.45;3.78;;;26.60;79.50;;;;;;5124621;28;20027;-52
2023/01/06 04:56:55;;;;;;;6.95;3.47;;;26.60;79.40;;;;;;5124767;28;20046;-54
2023/01/06 04:59:22;;;;;;;7.75;3.97;;;26.60;79.40;;;;;;5125160;28;20058;-54
2023/01/06 05:01:48;;;;;;;5.63;3.67;;;26.60;79.20;;;;;;5124531;28;20028;-54
2023/01/06 05:04:15;;;;;;;5.82;3.60;;;26.60;79.40;;;;;;5124842;28;20022;-60
2023/01/06 05:06:42;;;;;;;6.47;3.78;;;26.60;79.10;;;;;;5124450;28;20036;-54
2023/01/06 05:09:08;;;;;;;7.30;3.78;;;26.60;78.80;;;;;;5124992;28;20016;-53
2023/01/06 05:11:35;;;;;;;5.93;3.70;;;26.60;78.90;;;;;;5124394;28;20047;-55
2023/01/06 05:14:02;;;;;;;5.38;3.40;;;26.60;78.60;;;;;;5124900;28;20077;-55
2023/01/06 05:16:31;;;;;;;5.30;3.33;;;26.60;78.40;;;;;;5124311;28;20032;-54
2023/01/06 05:18:58;;;;;;;5.05;3.13;;;26.60;78.40;;;;;;5123952;28;20239;-53
2023/01/06 05:21:27;;;;;;;6.05;2.92;;;26.50;78.30;;;;;;5124394;28;20036;-55
2023/01/06 05:23:55;;;;;;;4.63;3.20;;;26.50;78.30;;;;;;5124778;28;20023;-57
2023/01/06 05:26:23;;;;;;;6.35;3.20;;;26.60;78.10;;;;;;5124258;28;20035;-53
2023/01/06 05:28:51;;;;;;;6.03;3.17;;;26.60;77.90;;;;;;5124727;28;20016;-55
2023/01/06 05:31:17;;;;;;;6.53;3.20;;;26.50;78.20;;;;;;5124248;28;20032;-56
2023/01/06 05:33:44;;;;;;;9.75;3.20;;;26.50;77.60;;;;;;5124195;28;20032;-55
2023/01/06 05:36:14;;;;;;;5.70;2.85;;;26.50;77.70;;;;;;5124176;28;20304;-59
2023/01/06 05:38:41;;;;;;;3.97;2.80;;;26.50;77.40;;;;;;5124506;28;20023;-56
2023/01/06 05:41:08;;;;;;;4.32;2.90;;;26.50;77.40;;;;;;5124259;28;20023;-55
2023/01/06 05:43:35;;;;;;;5.97;3.10;;;26.50;77.30;;;;;;5124518;28;20019;-57
2023/01/06 05:46:10;;;;;;;6.30;3.63;;;26.50;77.60;;;;;;5123957;28;20024;-53
2023/01/06 05:48:38;;;;;;;9.20;3.47;;;26.40;77.70;;;;;;5124463;28;20035;-55
2023/01/06 05:51:06;;;;;;;7.13;3.70;;;26.40;77.40;;;;;;5123907;28;20323;-55
2023/01/06 05:53:38;;;;;;;6.00;3.55;;;26.40;77.60;;;;;;5124159;28;20136;-55
2023/01/06 05:56:10;;;;;;;6.57;3.47;;;26.40;77.50;;;;;;5124101;28;20024;-55
2023/01/06 05:58:39;;;;;;;5.63;3.10;;;26.40;77.50;;;;;;5124327;28;20023;-54
2023/01/06 06:01:06;;;;;;;4.75;3.08;;;26.40;77.30;;;;;;5123901;28;20038;-54
2023/01/06 06:03:33;;;;;;;5.40;3.42;;;26.40;77.40;;;;;;5124341;28;20034;-56
2023/01/06 06:06:06;;;;;;;5.40;3.50;;;26.40;77.40;;;;;;5124007;28;20374;-55
2023/01/06 06:08:33;;;;;;;8.30;3.95;;;26.40;77.50;;;;;;5124196;28;20069;-57
2023/01/06 06:11:05;;;;;;;9.18;4.18;;;26.40;77.30;;;;;;5123977;28;20020;-53
2023/01/06 06:13:32;;;;;;;7.50;4.45;;;26.40;77.40;;;;;;5124312;28;20015;-54
2023/01/06 06:16:13;;;;;;;9.15;3.90;;;26.40;77.30;;;;;;5123913;28;20023;-54
2023/01/06 06:18:43;;;;;;;9.75;4.75;;;26.40;77.40;;;;;;5123601;28;20254;-51
2023/01/06 06:21:12;;;;;;;10.10;5.00;;;26.40;77.40;;;;;;5123875;28;20320;-53
2023/01/06 06:23:39;;;;;;;12.82;5.47;;;26.30;77.40;;;;;;5124142;28;20031;-54
2023/01/06 06:26:07;;;;;;;9.48;5.45;;;26.30;77.30;;;;;;5123604;28;20038;-56
2023/01/06 06:28:35;;;;;;;9.45;4.18;;;26.30;77.40;;;;;;5124072;28;20049;-54
2023/01/06 06:31:16;;;;;;;7.78;4.38;;;26.30;77.40;;;;;;5125210;28;20023;-55
2023/01/06 06:33:43;;;;;;;7.45;3.88;;;26.30;77.40;;;;;;5127830;28;20098;-54
2023/01/06 06:36:14;;;;;;;6.57;3.55;;;26.30;77.60;;;;;;5127335;28;20028;-54
2023/01/06 06:38:44;;;;;;;8.13;4.10;;;26.30;77.50;;;;;;5127454;28;20247;-55
2023/01/06 06:41:11;;;;;;;6.28;3.00;;;26.30;77.60;;;;;;5127295;28;20355;-55
2023/01/06 06:43:38;;;;;;;8.10;3.30;;;26.30;77.60;;;;;;5127556;28;20031;-53
2023/01/06 06:46:05;;;;;;;7.23;3.30;;;26.20;77.50;;;;;;5126952;28;20019;-59
2023/01/06 06:48:33;;;;;;;7.20;3.20;;;26.20;77.30;;;;;;5127544;28;20342;-55
2023/01/06 06:51:09;;;;;;;4.53;3.22;;;26.20;77.40;;;;;;5127142;28;20038;-54
2023/01/06 06:53:37;;;;;;;5.13;3.17;;;26.20;77.30;;;;;;5127195;28;20087;-54
2023/01/06 06:56:05;;;;;;;6.97;3.38;;;26.30;77.30;;;;;;5126959;28;20035;-62
2023/01/06 06:58:33;;;;;;;5.40;3.22;;;26.20;77.40;;;;;;5127298;28;20023;-56
2023/01/06 07:01:10;;;;;;;6.93;3.33;;;26.20;77.30;;;;;;5126817;28;20027;-53
2023/01/06 07:03:36;;;;;;;6.63;3.22;;;26.20;77.30;;;;;;5126785;28;20051;-55
2023/01/06 07:06:06;;;;;;;4.28;2.95;;;26.20;77.30;;;;;;5126715;28;20020;-53
2023/01/06 07:08:32;;;;;;;4.88;2.97;;;26.20;77.30;;;;;;5127185;28;20038;-55
2023/01/06 07:10:59;;;;;;;6.72;3.25;;;26.20;77.30;;;;;;5126695;28;20117;-55
2023/01/06 07:13:26;;;;;;;4.72;2.90;;;26.20;77.30;;;;;;5126824;28;20011;-55
2023/01/06 07:15:53;;;;;;;4.75;3.15;;;26.20;77.70;;;;;;5126589;28;20031;-56
2023/01/06 07:18:20;;;;;;;5.85;3.03;;;26.20;77.20;;;;;;5126564;28;20035;-54
2023/01/06 07:20:48;;;;;;;7.38;3.00;;;26.20;77.30;;;;;;5126427;28;20050;-52
2023/01/06 07:23:16;;;;;;;8.10;2.97;;;26.20;77.10;;;;;;5126704;28;20284;-55
2023/01/06 07:25:43;;;;;;;7.10;2.78;;;26.20;77.10;;;;;;5126469;28;20032;-55
2023/01/06 07:28:09;;;;;;;6.65;2.88;;;26.20;77.10;;;;;;5126398;28;20036;-58
2023/01/06 07:30:36;;;;;;;5.15;2.80;;;26.20;77.00;;;;;;5126541;28;20027;-54
2023/01/06 07:33:03;;;;;;;5.22;2.88;;;26.20;77.60;;;;;;5126431;28;20036;-53
2023/01/06 07:35:30;;;;;;;6.63;2.95;;;26.20;77.70;;;;;;5126098;28;20022;-55
2023/01/06 07:38:05;;;;;;;6.40;3.22;;;26.20;77.00;;;;;;5126347;28;20028;-54
2023/01/06 07:40:31;;;;;;;6.28;3.10;;;26.20;77.10;;;;;;5126049;28;20039;-57
2023/01/06 07:43:06;;;;;;;5.80;2.85;;;26.20;77.00;;;;;;5125779;28;20019;-55
2023/01/06 07:45:33;;;;;;;6.00;2.70;;;26.10;76.90;;;;;;5125980;28;20035;-55
2023/01/06 07:48:00;;;;;;;3.72;2.78;;;26.20;77.10;;;;;;5126071;28;20015;-54
2023/01/06 07:50:28;;;;;;;5.00;2.78;;;26.20;77.10;;;;;;5125767;28;20042;-54
2023/01/06 07:52:57;;;;;;;4.50;2.58;;;26.10;77.10;;;;;;5125923;28;20265;-57
2023/01/06 07:55:24;;;;;;;5.35;2.92;;;26.20;77.50;;;;;;5125814;28;20022;-56
2023/01/06 07:57:51;;;;;;;8.65;3.05;;;26.20;77.20;;;;;;5125659;28;20034;-54
2023/01/06 08:00:18;;;;;;;4.05;2.67;;;26.10;77.00;;;;;;5125711;28;20038;-55
2023/01/06 08:02:45;;;;;;;5.05;2.78;;;26.10;77.00;;;;;;5125698;28;20027;-54
2023/01/06 08:05:12;;;;;;;3.92;2.83;;;26.10;76.90;;;;;;5125480;28;20027;-54
2023/01/06 08:07:38;;;;;;;3.88;2.50;;;26.10;76.90;;;;;;5125351;28;20090;-54
2023/01/06 08:10:07;;;;;;;5.82;2.60;;;26.10;76.80;;;;;;5125396;28;20055;-54
2023/01/06 08:12:33;;;;;;;4.60;2.60;;;26.10;76.80;;;;;;5125298;28;20015;-54
2023/01/06 08:15:00;;;;;;;5.68;2.80;;;26.10;76.90;;;;;;5125310;28;20343;-55
2023/01/06 08:17:26;;;;;;;5.82;2.53;;;26.10;76.90;;;;;;5125319;28;20268;-57
2023/01/06 08:19:53;;;;;;;4.22;2.70;;;26.10;76.90;;;;;;5124988;28;20111;-55
2023/01/06 08:22:20;;;;;;;5.32;3.00;;;26.10;77.00;;;;;;5125122;28;20033;-55
2023/01/06 08:24:46;;;;;;;6.13;2.58;;;26.10;77.00;;;;;;5125297;28;20027;-54
2023/01/06 08:27:13;;;;;;;6.55;2.83;;;26.10;77.10;;;;;;5124955;28;20106;-55
2023/01/06 08:29:39;;;;;;;3.60;2.50;;;26.10;77.10;;;;;;5125061;28;20087;-55
2023/01/06 08:32:06;;;;;;;4.03;2.63;;;26.00;77.30;;;;;;5125137;28;20311;-54
2023/01/06 08:34:32;;;;;;;4.90;2.85;;;26.00;77.30;;;;;;5125009;28;20059;-56
2023/01/06 08:36:59;;;;;;;4.57;2.47;;;26.00;77.10;;;;;;5125073;28;20011;-57
2023/01/06 08:39:26;;;;;;;3.03;2.35;;;26.00;77.20;;;;;;5125432;28;20184;-56
2023/01/06 08:41:53;;;;;;;4.30;2.40;;;26.00;77.10;;;;;;5124812;28;20031;-54
2023/01/06 08:44:19;;;;;;;6.55;2.72;;;26.00;77.10;;;;;;5125323;28;20068;-54
2023/01/06 08:46:46;;;;;;;4.20;2.40;;;26.00;77.20;;;;;;5124555;28;20110;-55
2023/01/06 08:49:13;;;;;;;5.68;2.50;;;26.00;77.10;;;;;;5124604;28;20018;-55
2023/01/06 08:51:40;;;;;;;3.42;2.25;;;26.00;77.20;;;;;;5124912;28;20031;-57
2023/01/06 08:54:06;;;;;;;3.85;2.47;;;26.00;77.10;;;;;;5124611;28;20027;-55
2023/01/06 08:56:34;;;;;;;4.13;2.45;;;26.00;77.10;;;;;;5124691;28;20338;-55
2023/01/06 08:59:03;;;;;;;5.95;2.47;;;26.00;77.10;;;;;;5124966;28;20102;-57
2023/01/06 09:01:35;;;;;;;4.80;2.53;;;26.00;77.20;;;;;;5124554;28;20050;-55
2023/01/06 09:04:04;;;;;;;4.05;2.78;;;26.00;77.20;;;;;;5124801;28;20054;-61
2023/01/06 09:06:31;;;;;;;5.63;2.97;;;26.00;77.20;;;;;;5124479;28;20076;-59
2023/01/06 09:08:58;;;;;;;5.40;2.85;;;26.00;77.20;;;;;;5124496;28;20035;-57
2023/01/06 09:11:25;;;;;;;6.50;2.97;;;26.00;77.30;;;;;;5124299;28;20019;-54
2023/01/06 09:13:52;;;;;;;5.60;2.70;;;26.00;77.20;;;;;;5124867;28;20016;-54
2023/01/06 09:16:19;;;;;;;5.35;2.60;;;26.00;77.20;;;;;;5124419;28;20047;-61
2023/01/06 09:18:49;;;;;;;4.25;2.90;;;26.00;77.20;;;;;;5124355;28;20043;-54
2023/01/06 09:21:25;;;;;;;5.05;2.80;;;26.00;77.20;;;;;;5124516;28;20094;-54
2023/01/06 09:23:51;;;;;;;4.95;2.63;;;26.00;77.30;;;;;;5124682;28;20064;-56
2023/01/06 09:26:20;;;;;;;5.55;2.95;;;26.00;77.30;;;;;;5124032;28;20028;-55
2023/01/06 09:28:47;;;;;;;4.63;2.65;;;26.00;77.30;;;;;;5124724;28;20058;-54
2023/01/06 09:31:14;;;;;;;5.78;2.88;;;26.00;77.40;;;;;;5124294;28;20027;-54
2023/01/06 09:33:40;;;;;;;6.30;2.83;;;26.00;77.40;;;;;;5124080;28;20070;-55
2023/01/06 09:36:07;;;;;;;5.72;2.30;;;26.00;77.40;;;;;;5124239;28;20024;-53
2023/01/06 09:38:34;;;;;;;4.32;2.40;;;26.00;77.40;;;;;;5124497;28;20086;-54
2023/01/06 09:41:29;;;;;;;3.95;2.15;;;26.00;77.40;;;;;;5124136;28;20032;-55
2023/01/06 09:44:30;;;;;;;4.47;2.50;;;26.00;77.40;;;;;;5124435;28;20024;-58
2023/01/06 09:46:59;;;;;;;4.15;2.83;;;26.00;77.50;;;;;;5068459;28;20043;-55
2023/01/06 09:49:43;;;;;;;4.72;2.65;;;26.00;77.70;;;;;;5124544;28;20051;-55
2023/01/06 09:52:36;;;;;;;7.10;2.72;;;26.00;77.50;;;;;;5124105;28;20069;-54
2023/01/06 09:55:15;;;;;;;3.25;2.50;;;26.00;77.70;;;;;;5114098;28;20035;-54
2023/01/06 09:57:55;;;;;;;3.65;2.42;;;26.00;77.80;;;;;;5124008;28;20051;-54
2023/01/06 10:00:37;;;;;;;3.95;2.58;;;26.00;77.70;;;;;;5124150;28;20092;-54
2023/01/06 10:03:05;;;;;;;5.65;3.10;;;26.00;77.70;;;;;;5123980;28;20028;-54
2023/01/06 10:05:57;;;;;;;6.03;3.05;;;26.00;77.70;;;;;;5124823;28;20069;-55
2023/01/06 10:08:49;;;;;;;4.50;2.55;;;26.00;77.80;;;;;;5127514;28;20030;-54
2023/01/06 10:11:47;;;;;;;4.18;2.53;;;26.00;77.90;;;;;;5127791;28;20020;-54
2023/01/06 10:14:17;;;;;;;5.10;2.83;;;26.00;78.00;;;;;;5121417;28;20098;-57
2023/01/06 10:16:50;;;;;;;6.93;3.35;;;26.00;78.00;;;;;;5127458;28;20215;-54
2023/01/06 10:19:29;;;;;;;4.22;2.50;;;26.00;78.10;;;;;;5127660;28;20055;-57
2023/01/06 10:22:23;;;;;;;4.05;2.70;;;26.00;78.10;;;;;;5127412;28;20031;-54
2023/01/06 10:24:54;;;;;;;5.35;3.10;;;26.00;78.10;;;;;;5127596;28;20024;-55
2023/01/06 10:27:25;;;;;;;4.82;2.97;;;26.00;78.20;;;;;;5127374;28;20019;-57
2023/01/06 10:29:54;;;;;;;5.45;3.28;;;26.00;78.30;;;;;;5127473;28;20067;-57
2023/01/06 10:32:25;;;;;;;4.85;3.00;;;25.90;78.40;;;;;;5127272;28;20300;-54
2023/01/06 10:34:52;;;;;;;6.47;2.60;;;26.00;78.60;;;;;;5127331;28;20028;-58
2023/01/06 10:37:39;;;;;;;6.15;3.00;;;25.90;78.70;;;;;;5127259;28;20023;-57
2023/01/06 10:40:25;;;;;;;6.00;3.05;;;26.00;78.70;;;;;;5127424;28;20020;-54
2023/01/06 10:42:58;;;;;;;6.03;2.92;;;25.90;78.60;;;;;;5127276;28;20045;-51
2023/01/06 10:45:27;;;;;;;6.10;3.10;;;26.00;78.80;;;;;;5127245;28;20185;-54
2023/01/06 10:47:55;;;;;;;6.13;2.97;;;25.90;79.00;;;;;;5127229;28;20075;-55
2023/01/06 10:50:23;;;;;;;7.30;3.53;;;25.90;79.30;;;;;;5126940;28;20020;-54
2023/01/06 10:52:49;;;;;;;7.50;3.28;;;25.90;79.30;;;;;;5127173;28;20026;-54
2023/01/06 10:55:34;;;;;;;6.40;3.00;;;25.90;79.40;;;;;;5127008;28;20211;-54
2023/01/06 10:58:53;;;;;;;5.15;3.20;;;25.90;79.50;;;;;;5127068;28;20297;-57
2023/01/06 11:01:25;;;;;;;7.88;3.55;;;25.80;79.50;;;;;;5117827;28;20320;-56
2023/01/06 11:04:25;;;;;;;5.07;3.08;;;25.80;79.80;;;;;;5127294;28;20047;-56
2023/01/06 11:07:01;;;;;;;8.93;3.30;;;25.80;79.90;;;;;;5069657;28;20103;-55
2023/01/06 11:09:40;;;;;;;8.85;3.33;;;25.80;79.90;;;;;;5126600;28;20039;-56
2023/01/06 11:12:19;;;;;;;6.00;3.55;;;25.80;79.90;;;;;;5126623;28;20083;-59
2023/01/06 11:15:06;;;;;;;10.10;3.60;;;25.80;80.00;;;;;;5126660;28;20036;-54
2023/01/06 11:17:33;;;;;;;6.75;3.42;;;25.80;80.10;;;;;;5125876;28;20327;-52
2023/01/06 11:20:09;;;;;;;7.20;3.30;;;25.80;80.10;;;;;;5126458;28;20087;-55
2023/01/06 11:22:36;;;;;;;7.90;3.40;;;25.80;80.10;;;;;;5126395;28;20020;-55
2023/01/06 11:25:19;;;;;;;6.65;3.40;;;25.80;80.20;;;;;;5126309;28;20060;-55
2023/01/06 11:28:04;;;;;;;6.93;2.97;;;25.80;80.20;;;;;;5126445;28;20023;-55
2023/01/06 11:30:36;;;;;;;7.82;3.30;;;25.80;80.20;;;;;;5126247;28;20031;-54
2023/01/06 11:33:04;;;;;;;6.63;3.53;;;25.80;80.20;;;;;;5126564;28;20024;-55
2023/01/06 11:35:32;;;;;;;10.05;3.83;;;25.80;80.30;;;;;;5126039;28;20363;-55
2023/01/06 11:37:59;;;;;;;7.30;3.72;;;25.80;80.40;;;;;;5126331;28;20035;-57
2023/01/06 11:40:31;;;;;;;7.43;4.70;;;25.80;80.30;;;;;;5126090;28;20214;-54
2023/01/06 11:43:11;;;;;;;7.28;4.20;;;25.80;80.30;;;;;;5126012;28;20036;-57
2023/01/06 11:45:53;;;;;;;8.32;4.63;;;25.90;80.50;;;;;;5125984;28;20031;-54
2023/01/06 11:48:33;;;;;;;5.90;4.25;;;25.90;80.60;;;;;;5125924;28;20063;-54
2023/01/06 11:51:02;;;;;;;6.97;3.63;;;25.90;80.50;;;;;;5125739;28;20020;-54
2023/01/06 11:53:30;;;;;;;9.63;4.43;;;25.90;80.50;;;;;;5125977;28;20034;-54
2023/01/06 11:56:04;;;;;;;8.65;3.88;;;25.80;80.40;;;;;;5125752;28;20023;-54
2023/01/06 11:58:48;;;;;;;11.35;4.30;;;25.90;80.60;;;;;;5126021;28;20038;-55
2023/01/06 12:01:27;;;;;;;9.95;3.83;;;25.90;80.50;;;;;;5125577;28;20137;-56
2023/01/06 12:04:04;;;;;;;8.13;3.95;;;25.90;80.50;;;;;;5125498;28;20046;-52
2023/01/06 12:06:42;;;;;;;8.70;4.38;;;25.90;80.60;;;;;;5125437;28;20076;-55
2023/01/06 12:09:48;;;;;;;9.68;4.07;;;25.90;80.60;;;;;;5125718;28;20019;-52
2023/01/06 12:12:26;;;;;;;6.13;3.53;;;25.90;80.60;;;;;;5121710;28;20039;-54
2023/01/06 12:14:55;;;;;;;9.95;4.10;;;25.90;80.70;;;;;;5125536;28;20071;-55
2023/01/06 12:17:43;;;;;;;5.88;3.53;;;26.00;80.60;;;;;;5125296;28;20024;-55
2023/01/06 12:20:16;;;;;;;10.88;4.10;;;26.00;80.60;;;;;;5125030;28;20055;-54
2023/01/06 12:22:50;;;;;;;10.15;4.32;;;26.00;80.70;;;;;;5125204;28;20023;-59
2023/01/06 12:25:29;;;;;;;8.65;4.55;;;26.00;80.80;;;;;;5125267;28;20073;-55
2023/01/06 12:28:05;;;;;;;11.85;4.70;;;26.00;80.70;;;;;;5124605;28;20053;-55
2023/01/06 12:30:39;;;;;;;7.10;4.25;;;26.10;80.80;;;;;;5125003;28;20137;-54
2023/01/06 12:33:34;;;;;;;8.25;4.30;;;26.10;80.80;;;;;;5125235;28;20027;-54
2023/01/06 12:36:23;;;;;;;8.65;4.35;;;26.10;80.80;;;;;;5083380;28;20032;-54
2023/01/06 12:38:55;;;;;;;6.45;3.90;;;26.10;80.70;;;;;;5125517;28;20031;-54
2023/01/06 12:41:22;;;;;;;;;;;26.20;80.90;;;;;;5125572;28;20312;-55
2023/01/06 12:44:23;;;;;;;7.75;3.75;;;26.20;80.90;;;;;;5125294;28;19926;-58
2023/01/06 12:47:10;;;;;;;8.35;4.13;;;26.20;81.00;;;;;;5125263;28;20040;-56
2023/01/06 12:49:49;;;;;;;5.50;3.53;;;26.20;81.10;;;;;;5124979;28;20031;-56
2023/01/06 12:52:23;;;;;;;6.53;3.60;;;26.30;81.00;;;;;;5124628;28;20249;-57
2023/01/06 12:54:52;;;;;;;6.32;3.30;;;26.30;81.10;;;;;;5124685;28;20254;-57
2023/01/06 12:57:44;;;;;;;6.80;3.70;;;26.30;81.10;;;;;;5124675;28;20030;-58
2023/01/06 13:00:36;;;;;;;5.00;3.30;;;26.30;81.00;;;;;;5124882;28;20038;-56
2023/01/06 13:03:19;;;;;;;7.32;3.35;;;26.40;81.00;;;;;;5124265;28;20170;-56
2023/01/06 13:06:05;;;;;;;6.45;3.25;;;26.40;81.00;;;;;;5124566;28;20031;-56
2023/01/06 13:08:45;;;;;;;6.53;3.20;;;26.30;80.70;;;;;;5124419;28;20244;-56
2023/01/06 13:11:21;;;;;;;9.07;3.50;;;26.40;80.80;;;;;;5124442;28;20024;-58